Nikishka, Alaska
Current Conditions -  °F | °C
As of 2:53 PM on Saturday 20 Dec 2014 (Local Time) from PAEN Reporting Station
Clear Clear  
Wind Chill: -6°   Ceiling: Unl
Heat Index: -6°   Visibility: 10mi
Dew Point: -9°   Wind: 0mph
Humidity: 81%   Direction: NA
Pressure: 28.9"   Gusts: NA
Location:  60.7377°N, 151.324°W
Report Text: PAEN 202353Z 00000KT 10SM CLR M06/M09 A2890 RMK AO2 SLP788 T10611089 11039 21061 56009
Loading
Personal Weather Stations






























Interactive Weather Map New forecast layout! Learn more

10-Day Weather Forecast

Advertisements
Track Severe Weather on mobile